KAL249 PANC-KJFK
Flight info
| Callsign | KAL249 |
|---|---|
| Flight time | N/A |
| Altitude | 31000 |
| Route | ANCH1 25R/MDO YAK DEEJA 58N130W 56N120W/N0481F330 WAINN 50N100W DLH TWIGS JHW Q476 WLKES |
| Aircraft | B77L/H-SDE1E2E3FGHIJ2J3J4J5M1RWXY/LB1D1 |
Departure
| Time | N/A |
|---|---|
| Airport | Ted Stevens Anchorage International Airport (PANC) |
Arrival
| Time | 2026-05-06 08:54 |
|---|---|
| Airport | John F. Kennedy International Airport (KJFK) |
| Time | Latitude | Longitude | Altitude | Speed | Heading |
|---|---|---|---|---|---|
| 2026-05-06 06:40 | 48.39453 | -95.80361 | 33092 ft | 501 kts | 122° |
| 2026-05-06 06:40 | 48.37612 | -95.75914 | 33094 ft | 501 kts | 122° |
| 2026-05-06 06:41 | 48.33921 | -95.67020 | 33090 ft | 501 kts | 122° |
| 2026-05-06 06:41 | 48.30223 | -95.58139 | 33091 ft | 501 kts | 122° |
| 2026-05-06 06:42 | 48.26518 | -95.49271 | 33087 ft | 502 kts | 122° |
| 2026-05-06 06:42 | 48.22803 | -95.40408 | 33082 ft | 502 kts | 122° |
| 2026-05-06 06:43 | 48.19079 | -95.31555 | 33082 ft | 502 kts | 122° |
| 2026-05-06 06:43 | 48.15348 | -95.22710 | 33079 ft | 502 kts | 123° |
| 2026-05-06 06:44 | 48.11609 | -95.13879 | 33078 ft | 502 kts | 123° |
| 2026-05-06 06:44 | 48.07861 | -95.05053 | 33074 ft | 502 kts | 123° |
| 2026-05-06 06:45 | 48.04106 | -94.96241 | 33063 ft | 503 kts | 123° |
| 2026-05-06 06:45 | 48.00343 | -94.87438 | 33049 ft | 503 kts | 123° |
| 2026-05-06 06:46 | 47.96573 | -94.78647 | 33042 ft | 503 kts | 123° |
| 2026-05-06 06:46 | 47.92791 | -94.69858 | 33047 ft | 503 kts | 123° |
| 2026-05-06 06:47 | 47.89002 | -94.61080 | 33044 ft | 504 kts | 124° |
| 2026-05-06 06:47 | 47.85208 | -94.52318 | 33048 ft | 504 kts | 124° |
| 2026-05-06 06:48 | 47.81402 | -94.43557 | 33060 ft | 504 kts | 124° |
| 2026-05-06 06:48 | 47.77568 | -94.34760 | 33078 ft | 511 kts | 124° |
| 2026-05-06 06:49 | 47.73660 | -94.25824 | 33067 ft | 520 kts | 124° |
| 2026-05-06 06:49 | 47.69708 | -94.16816 | 33062 ft | 526 kts | 124° |
| 2026-05-06 06:50 | 47.65704 | -94.07718 | 33048 ft | 526 kts | 124° |
| 2026-05-06 06:50 | 47.61695 | -93.98638 | 33051 ft | 526 kts | 124° |
| 2026-05-06 06:51 | 47.57680 | -93.89575 | 33050 ft | 526 kts | 124° |
| 2026-05-06 06:51 | 47.53657 | -93.80526 | 33052 ft | 526 kts | 125° |
| 2026-05-06 06:52 | 47.49627 | -93.71492 | 33042 ft | 526 kts | 125° |
| 2026-05-06 06:52 | 47.45590 | -93.62469 | 33030 ft | 526 kts | 125° |
| 2026-05-06 06:53 | 47.41545 | -93.53460 | 33025 ft | 527 kts | 125° |
| 2026-05-06 06:53 | 47.37488 | -93.44454 | 33017 ft | 527 kts | 126° |
| 2026-05-06 06:54 | 47.33422 | -93.35456 | 33015 ft | 527 kts | 126° |
| 2026-05-06 06:54 | 47.29343 | -93.26460 | 33016 ft | 528 kts | 126° |
| 2026-05-06 06:55 | 47.25258 | -93.17480 | 33017 ft | 528 kts | 126° |
| 2026-05-06 06:55 | 47.21184 | -93.08553 | 33002 ft | 529 kts | 126° |
| 2026-05-06 06:56 | 47.17076 | -92.99579 | 32994 ft | 529 kts | 126° |
| 2026-05-06 06:56 | 47.12958 | -92.90615 | 32995 ft | 530 kts | 126° |
| 2026-05-06 06:57 | 47.08858 | -92.81713 | 32986 ft | 521 kts | 127° |
| 2026-05-06 06:57 | 47.04812 | -92.72959 | 33000 ft | 517 kts | 127° |
| 2026-05-06 06:58 | 47.00769 | -92.64244 | 32995 ft | 517 kts | 127° |
| 2026-05-06 06:58 | 46.96724 | -92.55550 | 33004 ft | 517 kts | 127° |
| 2026-05-06 06:59 | 46.92667 | -92.46857 | 32984 ft | 518 kts | 127° |
| 2026-05-06 06:59 | 46.88596 | -92.38158 | 32959 ft | 519 kts | 127° |
| 2026-05-06 07:00 | 46.84507 | -92.29446 | 32949 ft | 520 kts | 128° |
| 2026-05-06 07:00 | 46.80434 | -92.20709 | 32960 ft | 522 kts | 125° |
| 2026-05-06 07:01 | 46.76974 | -92.11341 | 32985 ft | 525 kts | 119° |
| 2026-05-06 07:01 | 46.73720 | -92.01788 | 32977 ft | 527 kts | 119° |
| 2026-05-06 07:02 | 46.70439 | -91.92238 | 32977 ft | 527 kts | 120° |
| 2026-05-06 07:02 | 46.67120 | -91.82715 | 32985 ft | 528 kts | 120° |
| 2026-05-06 07:03 | 46.63774 | -91.73193 | 32981 ft | 528 kts | 120° |
| 2026-05-06 07:03 | 46.60417 | -91.63675 | 32985 ft | 529 kts | 120° |
| 2026-05-06 07:04 | 46.57072 | -91.54219 | 32986 ft | 530 kts | 121° |
| 2026-05-06 07:04 | 46.53696 | -91.44707 | 32981 ft | 530 kts | 121° |
| 2026-05-06 07:05 | 46.50307 | -91.35189 | 32986 ft | 531 kts | 121° |
| 2026-05-06 07:05 | 46.46909 | -91.25681 | 32986 ft | 531 kts | 121° |
| 2026-05-06 07:06 | 46.43497 | -91.16170 | 32984 ft | 532 kts | 121° |
| 2026-05-06 07:06 | 46.40076 | -91.06665 | 32975 ft | 532 kts | 121° |
| 2026-05-06 07:07 | 46.36645 | -90.97169 | 32978 ft | 532 kts | 121° |
| 2026-05-06 07:07 | 46.33214 | -90.87705 | 32977 ft | 533 kts | 122° |
| 2026-05-06 07:08 | 46.29757 | -90.78200 | 32980 ft | 533 kts | 122° |
| 2026-05-06 07:08 | 46.26856 | -90.70254 | 32982 ft | 534 kts | 122° |
| 2026-05-06 07:09 | 46.23383 | -90.60769 | 32977 ft | 535 kts | 122° |
| 2026-05-06 07:09 | 46.19922 | -90.51350 | 32974 ft | 535 kts | 122° |
| 2026-05-06 07:10 | 46.16424 | -90.41865 | 32973 ft | 536 kts | 122° |
| 2026-05-06 07:10 | 46.12910 | -90.32369 | 32971 ft | 537 kts | 123° |
| 2026-05-06 07:11 | 46.09381 | -90.22866 | 32966 ft | 538 kts | 123° |
| 2026-05-06 07:11 | 46.05848 | -90.13386 | 32957 ft | 539 kts | 123° |
| 2026-05-06 07:12 | 46.02299 | -90.03895 | 32951 ft | 540 kts | 123° |
| 2026-05-06 07:12 | 45.98733 | -89.94392 | 32931 ft | 541 kts | 123° |
| 2026-05-06 07:13 | 45.95151 | -89.84883 | 32928 ft | 542 kts | 124° |
| 2026-05-06 07:13 | 45.91551 | -89.75357 | 32915 ft | 544 kts | 124° |
| 2026-05-06 07:14 | 45.87955 | -89.65874 | 32921 ft | 545 kts | 124° |
| 2026-05-06 07:14 | 45.84319 | -89.56318 | 32921 ft | 546 kts | 125° |
| 2026-05-06 07:15 | 45.80664 | -89.46748 | 32936 ft | 547 kts | 125° |
| 2026-05-06 07:15 | 45.76999 | -89.37185 | 32933 ft | 548 kts | 125° |
| 2026-05-06 07:16 | 45.73321 | -89.27622 | 32942 ft | 549 kts | 125° |
| 2026-05-06 07:16 | 45.69630 | -89.18057 | 32935 ft | 550 kts | 125° |
| 2026-05-06 07:17 | 45.65929 | -89.08498 | 32938 ft | 550 kts | 125° |
| 2026-05-06 07:17 | 45.62214 | -88.98937 | 32936 ft | 550 kts | 126° |
| 2026-05-06 07:18 | 45.58494 | -88.89397 | 32932 ft | 550 kts | 126° |
| 2026-05-06 07:18 | 45.54771 | -88.79885 | 32936 ft | 550 kts | 126° |
| 2026-05-06 07:19 | 45.51039 | -88.70380 | 32947 ft | 550 kts | 126° |
| 2026-05-06 07:19 | 45.47296 | -88.60882 | 32934 ft | 550 kts | 126° |
| 2026-05-06 07:20 | 45.43570 | -88.51456 | 32932 ft | 549 kts | 126° |
| 2026-05-06 07:20 | 45.39814 | -88.41990 | 32929 ft | 549 kts | 126° |
| 2026-05-06 07:21 | 45.36061 | -88.32564 | 32934 ft | 549 kts | 126° |
| 2026-05-06 07:21 | 45.32301 | -88.23148 | 32932 ft | 548 kts | 126° |
| 2026-05-06 07:22 | 45.28539 | -88.13758 | 32935 ft | 548 kts | 126° |
| 2026-05-06 07:22 | 45.24769 | -88.04383 | 32933 ft | 548 kts | 126° |
| 2026-05-06 07:23 | 45.20987 | -87.95009 | 32941 ft | 547 kts | 127° |
| 2026-05-06 07:23 | 45.17202 | -87.85664 | 33085 ft | 549 kts | 127° |
| 2026-05-06 07:23 | 45.15305 | -87.80988 | 33522 ft | 546 kts | 126° |
| 2026-05-06 07:24 | 45.13423 | -87.76352 | 34060 ft | 540 kts | 126° |
| 2026-05-06 07:24 | 45.11554 | -87.71753 | 34463 ft | 537 kts | 126° |
| 2026-05-06 07:24 | 45.09691 | -87.67184 | 34737 ft | 536 kts | 126° |
| 2026-05-06 07:24 | 45.07821 | -87.62609 | 34875 ft | 538 kts | 126° |
| 2026-05-06 07:25 | 45.05940 | -87.58023 | 34897 ft | 540 kts | 126° |
| 2026-05-06 07:25 | 45.02181 | -87.48864 | 34951 ft | 538 kts | 126° |
| 2026-05-06 07:26 | 44.98433 | -87.39753 | 34957 ft | 536 kts | 126° |
| 2026-05-06 07:26 | 44.94686 | -87.30675 | 34951 ft | 534 kts | 127° |
| 2026-05-06 07:27 | 44.90937 | -87.21624 | 34950 ft | 534 kts | 127° |
| 2026-05-06 07:27 | 44.87185 | -87.12598 | 34951 ft | 534 kts | 127° |
| 2026-05-06 07:28 | 44.83447 | -87.03632 | 34952 ft | 534 kts | 127° |
| 2026-05-06 07:28 | 44.77778 | -86.90087 | 34951 ft | 536 kts | 127° |
| 2026-05-06 07:29 | 44.73979 | -86.81046 | 34945 ft | 537 kts | 127° |
| 2026-05-06 07:29 | 44.70167 | -86.72002 | 34938 ft | 538 kts | 127° |
| 2026-05-06 07:30 | 44.66341 | -86.62953 | 34936 ft | 538 kts | 127° |
| 2026-05-06 07:30 | 44.62512 | -86.53926 | 34950 ft | 538 kts | 127° |
| 2026-05-06 07:31 | 44.58672 | -86.44903 | 34938 ft | 538 kts | 127° |
| 2026-05-06 07:31 | 44.54834 | -86.35911 | 34933 ft | 537 kts | 127° |
| 2026-05-06 07:32 | 44.50999 | -86.26955 | 34927 ft | 535 kts | 128° |
| 2026-05-06 07:32 | 44.47165 | -86.18031 | 34920 ft | 534 kts | 128° |
| 2026-05-06 07:33 | 44.43335 | -86.09143 | 34922 ft | 532 kts | 128° |
| 2026-05-06 07:33 | 44.39512 | -86.00299 | 34925 ft | 531 kts | 128° |
| 2026-05-06 07:34 | 44.35688 | -85.91481 | 34924 ft | 530 kts | 128° |
| 2026-05-06 07:34 | 44.31863 | -85.82687 | 34912 ft | 529 kts | 128° |
| 2026-05-06 07:35 | 44.28040 | -85.73926 | 34907 ft | 529 kts | 128° |
| 2026-05-06 07:35 | 44.24205 | -85.65166 | 34909 ft | 529 kts | 128° |
| 2026-05-06 07:36 | 44.20364 | -85.56417 | 34900 ft | 529 kts | 128° |
| 2026-05-06 07:36 | 44.16519 | -85.47684 | 34897 ft | 529 kts | 129° |
| 2026-05-06 07:37 | 44.12661 | -85.38948 | 34895 ft | 529 kts | 129° |
| 2026-05-06 07:37 | 44.08797 | -85.30225 | 34899 ft | 530 kts | 129° |
| 2026-05-06 07:38 | 44.04927 | -85.21514 | 34904 ft | 530 kts | 129° |
| 2026-05-06 07:38 | 44.01045 | -85.12802 | 34913 ft | 530 kts | 129° |
| 2026-05-06 07:39 | 43.97157 | -85.04107 | 34908 ft | 530 kts | 129° |
| 2026-05-06 07:39 | 43.93259 | -84.95411 | 34904 ft | 531 kts | 129° |
| 2026-05-06 07:40 | 43.89350 | -84.86719 | 34895 ft | 531 kts | 130° |
| 2026-05-06 07:40 | 43.85436 | -84.78042 | 34890 ft | 531 kts | 130° |
| 2026-05-06 07:41 | 43.81517 | -84.69377 | 34880 ft | 531 kts | 130° |
| 2026-05-06 07:41 | 43.77592 | -84.60726 | 34888 ft | 531 kts | 130° |
| 2026-05-06 07:42 | 43.73687 | -84.52147 | 34889 ft | 531 kts | 130° |
| 2026-05-06 07:42 | 43.69751 | -84.43522 | 34893 ft | 530 kts | 130° |
| 2026-05-06 07:43 | 43.65816 | -84.34927 | 34898 ft | 530 kts | 130° |
| 2026-05-06 07:43 | 43.61869 | -84.26330 | 34905 ft | 530 kts | 130° |
| 2026-05-06 07:44 | 43.57918 | -84.17751 | 34907 ft | 530 kts | 131° |
| 2026-05-06 07:44 | 43.53954 | -84.09168 | 34894 ft | 530 kts | 131° |
| 2026-05-06 07:45 | 43.49974 | -84.00575 | 34898 ft | 530 kts | 131° |
| 2026-05-06 07:45 | 43.46006 | -83.92032 | 34872 ft | 530 kts | 131° |
| 2026-05-06 07:46 | 43.42041 | -83.83522 | 34878 ft | 530 kts | 131° |
| 2026-05-06 07:46 | 43.38054 | -83.74991 | 34877 ft | 530 kts | 131° |
| 2026-05-06 07:47 | 43.34065 | -83.66478 | 34875 ft | 530 kts | 131° |
| 2026-05-06 07:47 | 43.30062 | -83.57963 | 34876 ft | 531 kts | 131° |
| 2026-05-06 07:48 | 43.26051 | -83.49452 | 34886 ft | 531 kts | 131° |
| 2026-05-06 07:48 | 43.22034 | -83.40954 | 34876 ft | 532 kts | 132° |
| 2026-05-06 07:49 | 43.18004 | -83.32453 | 34876 ft | 532 kts | 132° |
| 2026-05-06 07:49 | 43.13966 | -83.23959 | 34873 ft | 532 kts | 132° |
| 2026-05-06 07:50 | 43.10001 | -83.15642 | 34865 ft | 532 kts | 132° |
| 2026-05-06 07:50 | 43.05908 | -83.07083 | 34864 ft | 532 kts | 132° |
| 2026-05-06 07:51 | 43.01858 | -82.98635 | 34858 ft | 532 kts | 132° |
| 2026-05-06 07:51 | 42.97796 | -82.90189 | 34861 ft | 532 kts | 132° |
| 2026-05-06 07:52 | 42.93726 | -82.81748 | 34861 ft | 533 kts | 132° |
| 2026-05-06 07:52 | 42.89638 | -82.73295 | 34866 ft | 534 kts | 132° |
| 2026-05-06 07:53 | 42.86203 | -82.66206 | 34860 ft | 536 kts | 132° |
| 2026-05-06 07:53 | 42.82326 | -82.57477 | 34862 ft | 547 kts | 123° |
| 2026-05-06 07:54 | 42.79217 | -82.46062 | 34867 ft | 561 kts | 109° |
| 2026-05-06 07:54 | 42.77782 | -82.37350 | 34866 ft | 564 kts | 107° |
| 2026-05-06 07:55 | 42.76142 | -82.26894 | 34852 ft | 566 kts | 107° |
| 2026-05-06 07:55 | 42.74447 | -82.16443 | 34860 ft | 566 kts | 108° |
| 2026-05-06 07:56 | 42.72693 | -82.05995 | 34849 ft | 567 kts | 108° |
| 2026-05-06 07:56 | 42.70922 | -81.95579 | 34843 ft | 567 kts | 108° |
| 2026-05-06 07:57 | 42.69141 | -81.85146 | 34836 ft | 566 kts | 108° |
| 2026-05-06 07:57 | 42.67357 | -81.74730 | 34835 ft | 566 kts | 108° |
| 2026-05-06 07:58 | 42.65568 | -81.64338 | 34837 ft | 565 kts | 108° |
| 2026-05-06 07:58 | 42.63784 | -81.54040 | 34837 ft | 565 kts | 108° |
| 2026-05-06 07:59 | 42.61965 | -81.43598 | 34839 ft | 564 kts | 108° |
| 2026-05-06 07:59 | 42.60151 | -81.33246 | 34835 ft | 563 kts | 108° |
| 2026-05-06 08:00 | 42.58332 | -81.22925 | 34836 ft | 563 kts | 108° |
| 2026-05-06 08:00 | 42.56504 | -81.12610 | 34837 ft | 562 kts | 108° |
| 2026-05-06 08:01 | 42.54670 | -81.02326 | 34837 ft | 561 kts | 108° |
| 2026-05-06 08:01 | 42.52827 | -80.92045 | 34841 ft | 561 kts | 108° |
| 2026-05-06 08:02 | 42.50978 | -80.81788 | 34854 ft | 561 kts | 109° |
| 2026-05-06 08:02 | 42.49120 | -80.71537 | 34837 ft | 560 kts | 109° |
| 2026-05-06 08:03 | 42.47251 | -80.61278 | 34835 ft | 561 kts | 109° |
| 2026-05-06 08:03 | 42.45374 | -80.51037 | 34844 ft | 561 kts | 109° |
| 2026-05-06 08:04 | 42.43489 | -80.40804 | 34845 ft | 560 kts | 109° |
| 2026-05-06 08:04 | 42.41611 | -80.30666 | 34847 ft | 560 kts | 109° |
| 2026-05-06 08:05 | 42.39711 | -80.20466 | 34847 ft | 559 kts | 109° |
| 2026-05-06 08:05 | 42.37804 | -80.10281 | 34845 ft | 559 kts | 109° |
| 2026-05-06 08:06 | 42.35891 | -80.00115 | 34848 ft | 558 kts | 109° |
| 2026-05-06 08:06 | 42.33967 | -79.89951 | 34853 ft | 558 kts | 110° |
| 2026-05-06 08:07 | 42.32037 | -79.79803 | 34855 ft | 558 kts | 110° |
| 2026-05-06 08:07 | 42.30096 | -79.69654 | 34855 ft | 558 kts | 110° |
| 2026-05-06 08:08 | 42.28143 | -79.59496 | 34845 ft | 560 kts | 110° |
| 2026-05-06 08:08 | 42.26176 | -79.49321 | 34831 ft | 561 kts | 110° |
| 2026-05-06 08:09 | 42.24196 | -79.39125 | 34829 ft | 562 kts | 109° |
| 2026-05-06 08:09 | 42.22205 | -79.28924 | 34813 ft | 564 kts | 109° |
| 2026-05-06 08:10 | 42.20202 | -79.18706 | 34820 ft | 565 kts | 109° |
| 2026-05-06 08:10 | 42.18073 | -79.08502 | 34823 ft | 564 kts | 113° |
| 2026-05-06 08:11 | 42.15577 | -78.98495 | 34823 ft | 564 kts | 114° |
| 2026-05-06 08:11 | 42.13018 | -78.88524 | 34821 ft | 565 kts | 114° |
| 2026-05-06 08:12 | 42.10464 | -78.78482 | 34804 ft | 566 kts | 114° |
| 2026-05-06 08:12 | 42.07949 | -78.68529 | 34806 ft | 567 kts | 114° |
| 2026-05-06 08:13 | 42.05391 | -78.58429 | 34800 ft | 567 kts | 114° |
| 2026-05-06 08:13 | 42.02835 | -78.48396 | 34798 ft | 567 kts | 114° |
| 2026-05-06 08:14 | 42.00272 | -78.38390 | 34797 ft | 566 kts | 114° |
| 2026-05-06 08:14 | 41.97703 | -78.28400 | 34796 ft | 566 kts | 114° |
| 2026-05-06 08:15 | 41.95125 | -78.18418 | 34803 ft | 566 kts | 114° |
| 2026-05-06 08:15 | 41.92541 | -78.08452 | 34818 ft | 567 kts | 114° |
| 2026-05-06 08:16 | 41.89940 | -77.98458 | 34803 ft | 568 kts | 113° |
| 2026-05-06 08:16 | 41.87327 | -77.88457 | 34818 ft | 569 kts | 113° |
| 2026-05-06 08:17 | 41.84704 | -77.78445 | 34811 ft | 569 kts | 113° |
| 2026-05-06 08:17 | 41.82083 | -77.68439 | 34807 ft | 570 kts | 113° |
| 2026-05-06 08:18 | 41.79458 | -77.58447 | 34799 ft | 570 kts | 113° |
| 2026-05-06 08:18 | 41.76812 | -77.48469 | 34806 ft | 569 kts | 113° |
| 2026-05-06 08:19 | 41.74149 | -77.38528 | 34800 ft | 568 kts | 113° |
| 2026-05-06 08:19 | 41.71479 | -77.28587 | 34802 ft | 567 kts | 113° |
| 2026-05-06 08:20 | 41.68811 | -77.18673 | 34801 ft | 566 kts | 113° |
| 2026-05-06 08:20 | 41.66132 | -77.08767 | 34799 ft | 566 kts | 113° |
| 2026-05-06 08:21 | 41.63455 | -76.98897 | 34800 ft | 565 kts | 113° |
| 2026-05-06 08:21 | 41.60775 | -76.89051 | 34787 ft | 564 kts | 113° |
| 2026-05-06 08:22 | 41.58108 | -76.79282 | 34790 ft | 564 kts | 113° |
| 2026-05-06 08:22 | 41.55397 | -76.69400 | 34788 ft | 563 kts | 113° |
| 2026-05-06 08:23 | 41.52699 | -76.59595 | 34788 ft | 563 kts | 113° |
| 2026-05-06 08:23 | 41.49990 | -76.49787 | 34806 ft | 564 kts | 113° |
| 2026-05-06 08:24 | 41.47276 | -76.39977 | 34799 ft | 564 kts | 113° |
| 2026-05-06 08:24 | 41.44554 | -76.30173 | 34801 ft | 565 kts | 112° |
| 2026-05-06 08:25 | 41.41905 | -76.20662 | 34800 ft | 556 kts | 112° |
| 2026-05-06 08:25 | 41.39170 | -76.10885 | 34538 ft | 547 kts | 113° |
| 2026-05-06 08:26 | 41.37844 | -76.06158 | 34077 ft | 543 kts | 113° |
| 2026-05-06 08:26 | 41.36529 | -76.01483 | 33648 ft | 538 kts | 113° |
| 2026-05-06 08:26 | 41.35222 | -75.96842 | 33190 ft | 532 kts | 113° |
| 2026-05-06 08:26 | 41.33930 | -75.92263 | 32749 ft | 527 kts | 113° |
| 2026-05-06 08:27 | 41.32650 | -75.87736 | 32317 ft | 521 kts | 113° |
| 2026-05-06 08:27 | 41.31377 | -75.83241 | 31894 ft | 516 kts | 114° |
| 2026-05-06 08:27 | 41.30117 | -75.78800 | 31466 ft | 511 kts | 114° |
| 2026-05-06 08:27 | 41.28867 | -75.74399 | 31042 ft | 507 kts | 114° |
| 2026-05-06 08:28 | 41.27632 | -75.70060 | 30629 ft | 502 kts | 114° |
| 2026-05-06 08:28 | 41.26368 | -75.65829 | 30230 ft | 496 kts | 117° |
| 2026-05-06 08:28 | 41.24997 | -75.61675 | 29807 ft | 491 kts | 118° |
| 2026-05-06 08:28 | 41.23568 | -75.57519 | 29332 ft | 486 kts | 118° |
| 2026-05-06 08:29 | 41.22179 | -75.53502 | 28905 ft | 481 kts | 118° |
| 2026-05-06 08:29 | 41.20818 | -75.49525 | 28455 ft | 478 kts | 118° |
| 2026-05-06 08:29 | 41.19468 | -75.45541 | 28003 ft | 474 kts | 118° |
| 2026-05-06 08:29 | 41.18130 | -75.41563 | 27527 ft | 471 kts | 118° |
| 2026-05-06 08:30 | 41.16782 | -75.37555 | 27092 ft | 467 kts | 118° |
| 2026-05-06 08:30 | 41.15464 | -75.33645 | 26662 ft | 463 kts | 118° |
| 2026-05-06 08:30 | 41.14170 | -75.29815 | 26230 ft | 460 kts | 118° |
| 2026-05-06 08:30 | 41.12868 | -75.25961 | 25794 ft | 457 kts | 118° |
| 2026-05-06 08:31 | 41.11577 | -75.22142 | 25370 ft | 454 kts | 118° |
| 2026-05-06 08:31 | 41.10324 | -75.18439 | 24971 ft | 451 kts | 118° |
| 2026-05-06 08:31 | 41.09010 | -75.14559 | 24546 ft | 448 kts | 118° |
| 2026-05-06 08:31 | 41.07739 | -75.10814 | 24141 ft | 445 kts | 118° |
| 2026-05-06 08:32 | 41.06471 | -75.07085 | 23733 ft | 443 kts | 118° |
| 2026-05-06 08:32 | 41.05209 | -75.03378 | 23320 ft | 440 kts | 118° |
| 2026-05-06 08:32 | 41.03957 | -74.99705 | 22902 ft | 437 kts | 118° |
| 2026-05-06 08:32 | 41.02710 | -74.96050 | 22511 ft | 433 kts | 118° |
| 2026-05-06 08:33 | 41.01478 | -74.92441 | 22106 ft | 429 kts | 118° |
| 2026-05-06 08:33 | 41.00252 | -74.88858 | 21700 ft | 426 kts | 118° |
| 2026-05-06 08:33 | 40.99219 | -74.85191 | 21279 ft | 427 kts | 106° |
| 2026-05-06 08:33 | 40.98687 | -74.81324 | 20880 ft | 426 kts | 101° |
| 2026-05-06 08:34 | 40.98299 | -74.77541 | 20495 ft | 424 kts | 100° |
| 2026-05-06 08:34 | 40.97542 | -74.69884 | 19758 ft | 414 kts | 101° |
| 2026-05-06 08:34 | 40.97146 | -74.66168 | 19056 ft | 403 kts | 102° |
| 2026-05-06 08:35 | 40.96741 | -74.62567 | 18206 ft | 399 kts | 102° |
| 2026-05-06 08:35 | 40.96320 | -74.58953 | 17368 ft | 403 kts | 103° |
| 2026-05-06 08:35 | 40.95901 | -74.55423 | 17005 ft | 400 kts | 103° |
| 2026-05-06 08:35 | 40.95620 | -74.53053 | 16832 ft | 396 kts | 103° |
| 2026-05-06 08:36 | 40.95193 | -74.49474 | 16533 ft | 392 kts | 103° |
| 2026-05-06 08:36 | 40.94625 | -74.44722 | 16030 ft | 390 kts | 103° |
| 2026-05-06 08:36 | 40.94340 | -74.42344 | 15761 ft | 389 kts | 103° |
| 2026-05-06 08:36 | 40.93781 | -74.37687 | 15318 ft | 385 kts | 104° |
| 2026-05-06 08:37 | 40.93503 | -74.35373 | 15113 ft | 383 kts | 104° |
| 2026-05-06 08:37 | 40.93080 | -74.31866 | 14781 ft | 381 kts | 104° |
| 2026-05-06 08:37 | 40.92669 | -74.28468 | 14464 ft | 378 kts | 104° |
| 2026-05-06 08:37 | 40.92254 | -74.25046 | 14137 ft | 376 kts | 104° |
| 2026-05-06 08:38 | 40.91843 | -74.21657 | 13823 ft | 374 kts | 104° |
| 2026-05-06 08:38 | 40.91441 | -74.18352 | 13515 ft | 371 kts | 105° |
| 2026-05-06 08:38 | 40.91026 | -74.14951 | 13188 ft | 368 kts | 105° |
| 2026-05-06 08:38 | 40.90490 | -74.11752 | 12795 ft | 356 kts | 118° |
| 2026-05-06 08:39 | 40.89303 | -74.08991 | 12302 ft | 341 kts | 131° |
| 2026-05-06 08:39 | 40.87968 | -74.06391 | 11911 ft | 342 kts | 130° |
| 2026-05-06 08:39 | 40.86656 | -74.03781 | 11607 ft | 339 kts | 130° |
| 2026-05-06 08:39 | 40.85372 | -74.01191 | 11355 ft | 335 kts | 130° |
| 2026-05-06 08:40 | 40.84122 | -73.98648 | 11290 ft | 325 kts | 130° |
| 2026-05-06 08:40 | 40.82910 | -73.96174 | 11211 ft | 315 kts | 130° |
| 2026-05-06 08:40 | 40.81740 | -73.93783 | 11153 ft | 305 kts | 130° |
| 2026-05-06 08:40 | 40.80605 | -73.91466 | 11056 ft | 296 kts | 131° |
| 2026-05-06 08:41 | 40.79501 | -73.89216 | 10901 ft | 289 kts | 131° |
| 2026-05-06 08:41 | 40.78417 | -73.87009 | 10685 ft | 285 kts | 131° |
| 2026-05-06 08:41 | 40.77262 | -73.84918 | 10387 ft | 279 kts | 138° |
| 2026-05-06 08:41 | 40.76006 | -73.82981 | 10073 ft | 277 kts | 140° |
| 2026-05-06 08:42 | 40.74719 | -73.81110 | 9785 ft | 275 kts | 141° |
| 2026-05-06 08:42 | 40.73425 | -73.79269 | 9465 ft | 273 kts | 141° |
| 2026-05-06 08:42 | 40.72193 | -73.77354 | 9126 ft | 278 kts | 128° |
| 2026-05-06 08:42 | 40.71595 | -73.74881 | 9038 ft | 296 kts | 99° |
| 2026-05-06 08:43 | 40.71830 | -73.72067 | 8561 ft | 324 kts | 73° |
| 2026-05-06 08:43 | 40.72960 | -73.69494 | 8280 ft | 328 kts | 47° |
| 2026-05-06 08:43 | 40.74714 | -73.67621 | 7932 ft | 324 kts | 31° |
| 2026-05-06 08:43 | 40.76635 | -73.66100 | 7608 ft | 319 kts | 28° |
| 2026-05-06 08:44 | 40.78562 | -73.64663 | 7230 ft | 317 kts | 27° |
| 2026-05-06 08:44 | 40.80448 | -73.63273 | 6919 ft | 313 kts | 27° |
| 2026-05-06 08:44 | 40.82338 | -73.61888 | 6638 ft | 309 kts | 27° |
| 2026-05-06 08:44 | 40.84164 | -73.60552 | 6337 ft | 290 kts | 27° |
| 2026-05-06 08:45 | 40.85934 | -73.59382 | 6350 ft | 287 kts | 20° |
| 2026-05-06 08:45 | 40.87803 | -73.58420 | 6356 ft | 287 kts | 19° |
| 2026-05-06 08:45 | 40.89504 | -73.57112 | 6308 ft | 283 kts | 45° |
| 2026-05-06 08:45 | 40.90556 | -73.55018 | 6275 ft | 268 kts | 76° |
| 2026-05-06 08:46 | 40.90724 | -73.52695 | 6255 ft | 244 kts | 109° |
| 2026-05-06 08:46 | 40.90056 | -73.50821 | 6301 ft | 213 kts | 142° |
| 2026-05-06 08:46 | 40.88883 | -73.49897 | 6268 ft | 188 kts | 178° |
| 2026-05-06 08:46 | 40.87616 | -73.50053 | 6019 ft | 184 kts | 202° |
| 2026-05-06 08:47 | 40.86436 | -73.50696 | 5749 ft | 182 kts | 213° |
| 2026-05-06 08:47 | 40.85526 | -73.51793 | 5389 ft | 175 kts | 227° |
| 2026-05-06 08:47 | 40.84690 | -73.52944 | 5043 ft | 172 kts | 226° |
| 2026-05-06 08:47 | 40.83856 | -73.54059 | 4693 ft | 169 kts | 226° |
| 2026-05-06 08:48 | 40.83030 | -73.55150 | 4319 ft | 166 kts | 226° |
| 2026-05-06 08:48 | 40.82225 | -73.56206 | 4069 ft | 161 kts | 226° |
| 2026-05-06 08:48 | 40.81424 | -73.57257 | 3859 ft | 163 kts | 227° |
| 2026-05-06 08:48 | 40.80580 | -73.58268 | 3640 ft | 165 kts | 221° |
| 2026-05-06 08:49 | 40.79694 | -73.59202 | 3534 ft | 160 kts | 221° |
| 2026-05-06 08:49 | 40.78828 | -73.60114 | 3414 ft | 159 kts | 221° |
| 2026-05-06 08:49 | 40.77974 | -73.61015 | 3378 ft | 160 kts | 221° |
| 2026-05-06 08:49 | 40.77109 | -73.61930 | 3170 ft | 155 kts | 221° |
| 2026-05-06 08:50 | 40.76296 | -73.62788 | 3020 ft | 143 kts | 221° |
| 2026-05-06 08:50 | 40.75552 | -73.63574 | 2832 ft | 138 kts | 221° |
| 2026-05-06 08:50 | 40.74807 | -73.64363 | 2632 ft | 133 kts | 221° |
| 2026-05-06 08:50 | 40.74104 | -73.65106 | 2488 ft | 127 kts | 222° |
| 2026-05-06 08:51 | 40.73424 | -73.65827 | 2317 ft | 125 kts | 222° |
| 2026-05-06 08:51 | 40.72745 | -73.66547 | 2148 ft | 125 kts | 221° |
| 2026-05-06 08:51 | 40.72070 | -73.67261 | 1976 ft | 124 kts | 222° |
| 2026-05-06 08:51 | 40.71405 | -73.67965 | 1834 ft | 122 kts | 221° |
| 2026-05-06 08:52 | 40.70750 | -73.68691 | 1656 ft | 124 kts | 223° |
| 2026-05-06 08:52 | 40.70099 | -73.69438 | 1477 ft | 127 kts | 222° |
| 2026-05-06 08:52 | 40.69429 | -73.70205 | 1315 ft | 128 kts | 221° |
| 2026-05-06 08:52 | 40.68744 | -73.70990 | 1122 ft | 134 kts | 220° |
| 2026-05-06 08:53 | 40.68184 | -73.71674 | 974 ft | 136 kts | 226° |
| 2026-05-06 08:53 | 40.67544 | -73.72668 | 792 ft | 145 kts | 227° |
| 2026-05-06 08:53 | 40.66844 | -73.73647 | 585 ft | 150 kts | 216° |
| 2026-05-06 08:53 | 40.65951 | -73.74384 | 384 ft | 151 kts | 209° |
| 2026-05-06 08:54 | 40.65043 | -73.75083 | 211 ft | 152 kts | 208° |
| 2026-05-06 08:54 | 40.64145 | -73.75781 | 34 ft | 143 kts | 208° |
| 2026-05-06 08:54 | 40.63383 | -73.76377 | 28 ft | 108 kts | 211° |
| 2026-05-06 08:54 | 40.62989 | -73.76760 | 24 ft | 43 kts | 235° |
| 2026-05-06 08:55 | 40.62933 | -73.76974 | 20 ft | 19 kts | 284° |
| 2026-05-06 08:55 | 40.63001 | -73.77128 | 20 ft | 20 kts | 300° |
| 2026-05-06 08:55 | 40.63069 | -73.77280 | 22 ft | 20 kts | 300° |
| 2026-05-06 08:55 | 40.63140 | -73.77434 | 21 ft | 19 kts | 300° |
| 2026-05-06 08:56 | 40.63208 | -73.77588 | 23 ft | 19 kts | 302° |
| 2026-05-06 08:56 | 40.63278 | -73.77741 | 31 ft | 20 kts | 300° |
| 2026-05-06 08:56 | 40.63350 | -73.77902 | 24 ft | 21 kts | 300° |
| 2026-05-06 08:56 | 40.63422 | -73.78070 | 23 ft | 21 kts | 299° |
| 2026-05-06 08:57 | 40.63498 | -73.78236 | 22 ft | 21 kts | 301° |
| 2026-05-06 08:57 | 40.63573 | -73.78402 | 22 ft | 21 kts | 301° |
| 2026-05-06 08:57 | 40.63649 | -73.78568 | 22 ft | 21 kts | 301° |
| 2026-05-06 08:57 | 40.63724 | -73.78734 | 21 ft | 21 kts | 301° |
| 2026-05-06 08:58 | 40.63799 | -73.78900 | 24 ft | 21 kts | 301° |
| 2026-05-06 08:58 | 40.63874 | -73.79066 | 21 ft | 21 kts | 301° |
| 2026-05-06 08:58 | 40.63949 | -73.79232 | 20 ft | 21 kts | 301° |
| 2026-05-06 08:58 | 40.64025 | -73.79398 | 23 ft | 21 kts | 301° |
| 2026-05-06 08:59 | 40.64136 | -73.79507 | 21 ft | 21 kts | 357° |
| 2026-05-06 08:59 | 40.64283 | -73.79497 | 20 ft | 21 kts | 3° |
| 2026-05-06 08:59 | 40.64430 | -73.79493 | 20 ft | 21 kts | 355° |
| 2026-05-06 08:59 | 40.64576 | -73.79516 | 20 ft | 21 kts | 345° |
| 2026-05-06 09:00 | 40.64693 | -73.79609 | 20 ft | 17 kts | 325° |
| 2026-05-06 09:00 | 40.64794 | -73.79695 | 22 ft | 17 kts | 338° |
| 2026-05-06 09:00 | 40.64915 | -73.79703 | 20 ft | 17 kts | 1° |
| 2026-05-06 09:00 | 40.65032 | -73.79681 | 20 ft | 17 kts | 34° |
| 2026-05-06 09:01 | 40.65130 | -73.79653 | 20 ft | 16 kts | 329° |
| 2026-05-06 09:01 | 40.65210 | -73.79733 | 20 ft | 14 kts | 288° |
| 2026-05-06 09:01 | 40.65176 | -73.79848 | 21 ft | 14 kts | 241° |
| 2026-05-06 09:01 | 40.65131 | -73.79954 | 21 ft | 14 kts | 241° |
| 2026-05-06 09:02 | 40.65128 | -73.80080 | 20 ft | 14 kts | 271° |
| 2026-05-06 09:02 | 40.65129 | -73.80186 | 20 ft | 10 kts | 270° |
| 2026-05-06 09:02 | 40.65163 | -73.80238 | 23 ft | 6 kts | 358° |
| 2026-05-06 09:02 | 40.65193 | -73.80246 | 20 ft | 4 kts | 336° |
| 2026-05-06 09:03 | 40.65210 | -73.80277 | 22 ft | 4 kts | 293° |
| 2026-05-06 09:03 | 40.65214 | -73.80315 | 20 ft | 4 kts | 272° |
| 2026-05-06 09:03 | 40.65215 | -73.80332 | 20 ft | 1 kts | 272° |
| 2026-05-06 09:03 | 40.65215 | -73.80337 | 20 ft | 1 kts | 271° |
| 2026-05-06 09:04 | 40.65215 | -73.80339 | 20 ft | 0 kts | 271° |